createdAt,value
2022-10-17T00:00:58.108Z,13.43
2022-10-17T00:01:58.081Z,13.40
2022-10-17T00:02:58.095Z,13.38
2022-10-17T00:03:58.125Z,13.37
2022-10-17T00:04:57.958Z,13.36
2022-10-17T00:05:58.451Z,13.32
2022-10-17T00:06:57.931Z,13.32
2022-10-17T00:07:57.937Z,13.29
2022-10-17T00:08:57.924Z,13.29
2022-10-17T00:09:58.122Z,13.27
2022-10-17T00:10:58.075Z,13.29
2022-10-17T00:11:57.873Z,13.24
2022-10-17T00:12:57.877Z,13.25
2022-10-17T00:13:57.864Z,13.25
2022-10-17T00:14:57.901Z,13.25
2022-10-17T00:15:57.908Z,13.24
2022-10-17T00:16:57.963Z,13.24
2022-10-17T00:17:57.800Z,13.24
2022-10-17T00:18:57.780Z,13.22
2022-10-17T00:19:57.815Z,13.21
2022-10-17T00:20:58.136Z,13.21
2022-10-17T00:21:57.920Z,13.22
2022-10-17T00:22:57.925Z,13.21
2022-10-17T00:23:57.944Z,13.20
2022-10-17T00:24:57.888Z,13.18
2022-10-17T00:25:57.738Z,13.17
2022-10-17T00:26:57.959Z,13.17
2022-10-17T00:27:57.856Z,13.15
2022-10-17T00:28:57.761Z,13.14
2022-10-17T00:29:57.859Z,13.15
2022-10-17T00:30:57.705Z,13.12
2022-10-17T00:31:57.715Z,13.07
2022-10-17T00:32:57.721Z,13.06
2022-10-17T00:33:57.744Z,13.04
2022-10-17T00:34:57.787Z,13.04
2022-10-17T00:35:57.905Z,13.04
2022-10-17T00:36:57.732Z,13.04
2022-10-17T00:37:57.896Z,13.02
2022-10-17T00:38:57.692Z,13.02
2022-10-17T00:39:57.747Z,13.00
2022-10-17T00:40:57.741Z,13.00
2022-10-17T00:41:57.591Z,12.99
2022-10-17T00:42:57.747Z,12.97
2022-10-17T00:43:57.544Z,12.97
2022-10-17T00:44:57.631Z,12.97
2022-10-17T00:45:57.582Z,12.96
2022-10-17T00:46:57.855Z,12.97
2022-10-17T00:47:57.727Z,12.96
2022-10-17T00:48:57.517Z,12.95
2022-10-17T00:49:57.572Z,12.95
2022-10-17T00:50:58.164Z,12.93
2022-10-17T00:51:57.489Z,12.95
2022-10-17T00:52:57.612Z,12.95
2022-10-17T00:53:57.601Z,12.93
2022-10-17T00:54:57.605Z,12.93
2022-10-17T00:55:57.497Z,12.93
2022-10-17T00:56:57.614Z,12.89
2022-10-17T00:57:57.465Z,12.92
2022-10-17T00:58:57.513Z,12.89
2022-10-17T00:59:57.392Z,12.88
2022-10-17T01:00:57.439Z,12.89
2022-10-17T01:01:57.417Z,12.89
2022-10-17T01:02:57.601Z,12.89
2022-10-17T01:03:57.836Z,12.89
2022-10-17T01:04:57.342Z,12.89
2022-10-17T01:05:57.381Z,12.92
2022-10-17T01:06:57.343Z,12.92
2022-10-17T01:07:57.452Z,12.89
2022-10-17T01:08:57.848Z,12.92
2022-10-17T01:09:57.318Z,12.92
2022-10-17T01:10:58.015Z,12.95
2022-10-17T01:11:57.564Z,12.99
2022-10-17T01:12:57.278Z,13.00
2022-10-17T01:13:57.489Z,13.03
2022-10-17T01:14:58.246Z,13.04
2022-10-17T01:15:57.370Z,13.06
2022-10-17T01:16:57.470Z,13.06
2022-10-17T01:17:57.759Z,13.11
2022-10-17T01:18:57.350Z,13.12
2022-10-17T01:19:57.410Z,13.15
2022-10-17T01:20:57.397Z,13.21
2022-10-17T01:21:57.377Z,13.22
2022-10-17T01:22:57.380Z,13.30
2022-10-17T01:23:57.630Z,13.37
2022-10-17T01:24:57.387Z,13.54
2022-10-17T01:25:57.978Z,13.63
2022-10-17T01:26:57.228Z,13.81
2022-10-17T01:27:57.264Z,13.96
2022-10-17T01:28:57.133Z,14.12
2022-10-17T01:29:57.392Z,14.25
2022-10-17T01:30:57.103Z,14.50
2022-10-17T01:31:57.326Z,14.81
2022-10-17T01:32:57.164Z,15.03
2022-10-17T01:33:57.071Z,15.23
2022-10-17T01:34:57.024Z,15.33
2022-10-17T01:36:00.526Z,15.35
2022-10-17T01:36:57.387Z,15.35
2022-10-17T01:37:57.139Z,15.35
2022-10-17T01:38:57.051Z,15.35
2022-10-17T01:39:57.130Z,15.35
2022-10-17T01:40:57.197Z,15.33
2022-10-17T01:41:57.065Z,15.31
2022-10-17T01:42:57.004Z,15.28
2022-10-17T01:43:57.000Z,15.30
2022-10-17T01:44:56.977Z,15.30
2022-10-17T01:45:57.093Z,15.27
2022-10-17T01:47:57.421Z,15.26
2022-10-17T01:48:57.001Z,15.26
2022-10-17T01:49:57.150Z,15.27
2022-10-17T01:50:57.135Z,15.28
2022-10-17T01:51:56.977Z,15.33
2022-10-17T01:52:56.915Z,15.36
2022-10-17T01:53:57.105Z,15.39
2022-10-17T01:54:57.288Z,15.42
2022-10-17T01:56:57.075Z,15.45
2022-10-17T01:57:57.026Z,15.45
2022-10-17T01:58:57.075Z,15.43
2022-10-17T01:59:57.010Z,15.45
2022-10-17T02:00:56.962Z,15.48
2022-10-17T02:01:56.808Z,15.46
2022-10-17T02:02:56.889Z,15.45
2022-10-17T02:03:57.019Z,15.46
2022-10-17T02:04:57.327Z,15.52
2022-10-17T02:05:57.014Z,15.59
2022-10-17T02:06:56.867Z,15.60
2022-10-17T02:07:56.985Z,15.61
2022-10-17T02:08:57.325Z,15.66
2022-10-17T02:09:56.784Z,15.66
2022-10-17T02:10:56.806Z,15.67
2022-10-17T02:11:57.086Z,15.66
2022-10-17T02:12:57.003Z,15.66
2022-10-17T02:13:56.912Z,15.64
2022-10-17T02:14:57.059Z,15.66
2022-10-17T02:15:56.924Z,15.67
2022-10-17T02:16:57.088Z,15.68
2022-10-17T02:17:56.671Z,15.68
2022-10-17T02:18:56.631Z,15.72
2022-10-17T02:19:56.800Z,15.74
2022-10-17T02:20:57.136Z,15.78
2022-10-17T02:21:56.663Z,15.76
2022-10-17T02:22:57.102Z,15.74
2022-10-17T02:23:57.578Z,15.72
2022-10-17T02:24:56.846Z,15.70
2022-10-17T02:25:56.807Z,15.70
2022-10-17T02:26:57.009Z,15.70
2022-10-17T02:27:56.529Z,15.70
2022-10-17T02:28:56.605Z,15.72
2022-10-17T02:29:56.558Z,15.74
2022-10-17T02:30:56.509Z,15.75
2022-10-17T02:31:56.499Z,15.76
2022-10-17T02:32:56.566Z,15.75
2022-10-17T02:33:56.465Z,15.74
2022-10-17T02:34:56.449Z,15.70
2022-10-17T02:35:56.456Z,15.70
2022-10-17T02:36:56.492Z,15.64
2022-10-17T02:37:56.468Z,15.64
2022-10-17T02:38:56.449Z,15.61
2022-10-17T02:39:56.422Z,15.63
2022-10-17T02:40:56.424Z,15.63
2022-10-17T02:41:56.364Z,15.61
2022-10-17T02:42:56.374Z,15.63
2022-10-17T02:43:58.794Z,15.66
2022-10-17T02:44:56.433Z,15.64
2022-10-17T02:45:56.369Z,15.64
2022-10-17T02:46:56.347Z,15.63
2022-10-17T02:47:56.318Z,15.60
2022-10-17T02:48:56.371Z,15.59
2022-10-17T02:49:56.354Z,15.59
2022-10-17T02:50:56.405Z,15.56
2022-10-17T02:51:56.294Z,15.57
2022-10-17T02:52:56.319Z,15.56
2022-10-17T02:53:56.315Z,15.57
2022-10-17T02:54:56.285Z,15.54
2022-10-17T02:55:56.260Z,15.54
2022-10-17T02:56:56.310Z,15.52
2022-10-17T02:57:56.282Z,15.52
2022-10-17T02:58:56.236Z,15.57
2022-10-17T02:59:56.249Z,15.60
2022-10-17T03:00:56.294Z,15.61
2022-10-17T03:01:56.251Z,15.61
2022-10-17T03:02:56.240Z,15.61
2022-10-17T03:03:56.197Z,15.61
2022-10-17T03:04:56.166Z,15.61
2022-10-17T03:05:56.201Z,15.67
2022-10-17T03:06:56.162Z,15.63
2022-10-17T03:07:56.132Z,15.61
2022-10-17T03:08:56.157Z,15.60
2022-10-17T03:09:56.099Z,15.64
2022-10-17T03:10:56.089Z,15.67
2022-10-17T03:11:56.087Z,15.72
2022-10-17T03:12:56.087Z,15.74
2022-10-17T03:13:56.080Z,15.74
2022-10-17T03:14:56.087Z,15.74
2022-10-17T03:15:56.049Z,15.72
2022-10-17T03:16:56.025Z,15.74
2022-10-17T03:17:56.003Z,15.74
2022-10-17T03:18:55.989Z,15.74
2022-10-17T03:19:56.002Z,15.74
2022-10-17T03:20:56.017Z,15.74
2022-10-17T03:21:55.996Z,15.74
2022-10-17T03:22:55.976Z,15.78
2022-10-17T03:23:55.979Z,15.81
2022-10-17T03:24:55.966Z,15.85
2022-10-17T03:25:55.986Z,15.85
2022-10-17T03:26:55.978Z,15.85
2022-10-17T03:27:55.925Z,15.85
2022-10-17T03:28:55.989Z,15.88
2022-10-17T03:29:55.903Z,15.85
2022-10-17T03:30:55.957Z,15.86
2022-10-17T03:31:55.920Z,15.82
2022-10-17T03:32:55.937Z,15.82
2022-10-17T03:33:55.880Z,15.82
2022-10-17T03:34:55.833Z,15.81
2022-10-17T03:35:55.875Z,15.81
2022-10-17T03:36:55.865Z,15.79
2022-10-17T03:37:55.956Z,15.79
2022-10-17T03:38:56.180Z,15.82
2022-10-17T03:39:55.938Z,15.85
2022-10-17T03:40:56.089Z,15.88
2022-10-17T03:41:55.886Z,15.88
2022-10-17T03:42:56.321Z,15.89
2022-10-17T03:43:55.876Z,15.92
2022-10-17T03:44:56.093Z,15.93
2022-10-17T03:45:55.785Z,15.94
2022-10-17T03:46:55.962Z,15.96
2022-10-17T03:47:55.762Z,15.97
2022-10-17T03:48:55.894Z,16.00
2022-10-17T03:49:56.144Z,16.01
2022-10-17T03:50:56.025Z,16.03
2022-10-17T03:51:55.840Z,16.04
2022-10-17T03:52:55.843Z,16.06
2022-10-17T03:53:55.680Z,16.03
2022-10-17T03:54:55.919Z,16.06
2022-10-17T03:55:55.790Z,16.07
2022-10-17T03:57:55.649Z,16.04
2022-10-17T03:58:56.026Z,16.06
2022-10-17T03:59:55.623Z,16.06
2022-10-17T04:00:55.660Z,16.06
2022-10-17T04:01:55.668Z,16.11
2022-10-17T04:02:55.611Z,16.11
2022-10-17T04:03:55.559Z,16.11
2022-10-17T04:04:55.553Z,16.12
2022-10-17T04:05:55.552Z,16.12
2022-10-17T04:06:55.527Z,16.12
2022-10-17T04:07:56.464Z,16.12
2022-10-17T04:08:55.552Z,16.09
2022-10-17T04:09:55.500Z,16.07
2022-10-17T04:10:56.007Z,16.07
2022-10-17T04:11:55.463Z,16.06
2022-10-17T04:12:55.492Z,16.06
2022-10-17T04:13:55.480Z,16.06
2022-10-17T04:14:55.473Z,16.03
2022-10-17T04:15:55.456Z,16.01
2022-10-17T04:16:55.813Z,15.97
2022-10-17T04:17:55.751Z,15.94
2022-10-17T04:18:55.438Z,15.93
2022-10-17T04:19:55.814Z,15.93
2022-10-17T04:20:55.518Z,15.89
2022-10-17T04:21:55.522Z,15.89
2022-10-17T04:22:55.931Z,15.89
2022-10-17T04:23:55.774Z,15.89
2022-10-17T04:24:55.357Z,15.89
2022-10-17T04:25:55.630Z,15.92
2022-10-17T04:26:56.110Z,15.92
2022-10-17T04:27:55.682Z,15.89
2022-10-17T04:28:55.598Z,15.92
2022-10-17T04:29:55.300Z,15.92
2022-10-17T04:30:55.463Z,15.88
2022-10-17T04:31:55.273Z,15.88
2022-10-17T04:32:55.568Z,15.89
2022-10-17T04:33:55.253Z,15.94
2022-10-17T04:34:55.520Z,15.97
2022-10-17T04:35:55.574Z,15.97
2022-10-17T04:36:55.292Z,15.99
2022-10-17T04:37:55.867Z,15.96
2022-10-17T04:38:55.459Z,15.94
2022-10-17T04:39:55.620Z,15.92
2022-10-17T04:40:55.582Z,15.94
2022-10-17T04:41:55.188Z,15.96
2022-10-17T04:42:55.448Z,15.94
2022-10-17T04:43:55.518Z,15.96
2022-10-17T04:44:55.716Z,15.97
2022-10-17T04:45:55.130Z,15.99
2022-10-17T04:46:55.629Z,16.00
2022-10-17T04:47:55.170Z,16.03
2022-10-17T04:48:55.280Z,16.03
2022-10-17T04:49:55.231Z,16.09
2022-10-17T04:50:55.710Z,16.12
2022-10-17T04:51:55.065Z,16.18
2022-10-17T04:52:55.316Z,16.18
2022-10-17T04:53:55.170Z,16.18
2022-10-17T04:54:55.075Z,16.18
2022-10-17T04:55:55.385Z,16.16
2022-10-17T04:56:55.176Z,16.20
2022-10-17T04:57:55.045Z,16.22
2022-10-17T04:58:55.065Z,16.25
2022-10-17T04:59:55.351Z,16.26
2022-10-17T05:00:55.131Z,16.26
2022-10-17T05:01:54.999Z,16.26
2022-10-17T05:02:55.018Z,16.25
2022-10-17T05:03:55.078Z,16.26
2022-10-17T05:04:55.526Z,16.27
2022-10-17T05:05:55.182Z,16.27
2022-10-17T05:06:54.921Z,16.27
2022-10-17T05:07:54.921Z,16.31
2022-10-17T05:08:54.931Z,16.38
2022-10-17T05:09:54.981Z,16.40
2022-10-17T05:10:55.297Z,16.41
2022-10-17T05:11:54.851Z,16.41
2022-10-17T05:12:54.947Z,16.38
2022-10-17T05:13:55.000Z,16.40
2022-10-17T05:14:55.037Z,16.38
2022-10-17T05:15:54.847Z,16.37
2022-10-17T05:16:54.830Z,16.37
2022-10-17T05:17:54.896Z,16.38
2022-10-17T05:18:55.102Z,16.38
2022-10-17T05:19:54.835Z,16.49
2022-10-17T05:20:54.792Z,16.53
2022-10-17T05:21:54.812Z,16.55
2022-10-17T05:22:54.720Z,16.58
2022-10-17T05:23:54.820Z,16.56
2022-10-17T05:24:54.709Z,16.56
2022-10-17T05:25:55.035Z,16.56
2022-10-17T05:26:54.874Z,16.58
2022-10-17T05:27:54.713Z,16.53
2022-10-17T05:28:55.233Z,16.52
2022-10-17T05:29:54.949Z,16.52
2022-10-17T05:30:55.124Z,16.50
2022-10-17T05:31:54.777Z,16.48
2022-10-17T05:32:54.783Z,16.48
2022-10-17T05:33:54.649Z,16.42
2022-10-17T05:34:54.649Z,16.42
2022-10-17T05:35:54.839Z,16.41
2022-10-17T05:36:54.956Z,16.40
2022-10-17T05:37:54.747Z,16.40
2022-10-17T05:38:54.635Z,16.41
2022-10-17T05:39:54.583Z,16.40
2022-10-17T05:40:54.604Z,16.38
2022-10-17T05:41:54.822Z,16.37
2022-10-17T05:42:54.976Z,16.37
2022-10-17T05:43:54.573Z,16.37
2022-10-17T05:44:54.840Z,16.38
2022-10-17T05:45:54.924Z,16.38
2022-10-17T05:46:54.715Z,16.38
2022-10-17T05:47:54.666Z,16.41
2022-10-17T05:48:54.519Z,16.41
2022-10-17T05:49:54.487Z,16.42
2022-10-17T05:50:54.915Z,16.44
2022-10-17T05:51:54.593Z,16.45
2022-10-17T05:52:54.849Z,16.45
2022-10-17T05:53:54.489Z,16.44
2022-10-17T05:54:54.454Z,16.44
2022-10-17T05:55:54.919Z,16.45
2022-10-17T05:56:54.582Z,16.44
2022-10-17T05:57:54.577Z,16.44
2022-10-17T05:58:58.628Z,16.40
2022-10-17T05:59:54.543Z,16.42
2022-10-17T06:00:54.973Z,16.44
2022-10-17T06:01:54.941Z,16.48
2022-10-17T06:02:54.760Z,16.52
2022-10-17T06:03:54.383Z,16.56
2022-10-17T06:04:54.455Z,16.55
2022-10-17T06:05:54.553Z,16.55
2022-10-17T06:06:54.720Z,16.55
2022-10-17T06:07:58.164Z,16.55
2022-10-17T06:08:54.535Z,16.53
2022-10-17T06:09:54.736Z,16.53
2022-10-17T06:10:54.661Z,16.52
2022-10-17T06:11:54.288Z,16.52
2022-10-17T06:12:54.394Z,16.53
2022-10-17T06:13:54.720Z,16.52
2022-10-17T06:14:54.642Z,16.49
2022-10-17T06:15:54.277Z,16.49
2022-10-17T06:16:54.398Z,16.49
2022-10-17T06:17:54.454Z,16.48
2022-10-17T06:18:54.220Z,16.48
2022-10-17T06:19:54.371Z,16.48
2022-10-17T06:20:54.639Z,16.44
2022-10-17T06:21:54.188Z,16.49
2022-10-17T06:22:54.334Z,16.50
2022-10-17T06:23:54.382Z,16.50
2022-10-17T06:24:54.317Z,16.50
2022-10-17T06:25:54.167Z,16.50
2022-10-17T06:26:54.339Z,16.56
2022-10-17T06:27:54.459Z,16.59
2022-10-17T06:28:54.165Z,16.60
2022-10-17T06:29:54.100Z,16.60
2022-10-17T06:30:54.121Z,16.60
2022-10-17T06:31:54.094Z,16.60
2022-10-17T06:32:54.122Z,16.65
2022-10-17T06:33:54.086Z,16.68
2022-10-17T06:34:54.115Z,16.73
2022-10-17T06:35:54.017Z,16.78
2022-10-17T06:36:54.131Z,16.80
2022-10-17T06:37:54.214Z,16.81
2022-10-17T06:38:54.056Z,16.80
2022-10-17T06:39:54.004Z,16.81
2022-10-17T06:40:54.015Z,16.81
2022-10-17T06:41:54.057Z,16.81
2022-10-17T06:42:54.271Z,16.83
2022-10-17T06:43:54.134Z,16.86
2022-10-17T06:44:53.989Z,16.86
2022-10-17T06:45:54.040Z,16.85
2022-10-17T06:46:54.056Z,16.88
2022-10-17T06:47:54.323Z,16.86
2022-10-17T06:48:54.278Z,16.86
2022-10-17T06:49:53.990Z,16.85
2022-10-17T06:50:53.946Z,16.83
2022-10-17T06:51:53.895Z,16.81
2022-10-17T06:52:53.914Z,16.80
2022-10-17T06:53:53.889Z,16.78
2022-10-17T06:54:53.946Z,16.78
2022-10-17T06:55:54.096Z,16.78
2022-10-17T06:56:54.288Z,16.80
2022-10-17T06:57:54.070Z,16.78
2022-10-17T06:58:53.819Z,16.83
2022-10-17T06:59:53.796Z,16.85
2022-10-17T07:00:56.434Z,16.85
2022-10-17T07:01:53.996Z,16.86
2022-10-17T07:02:54.216Z,16.86
2022-10-17T07:03:54.170Z,16.89
2022-10-17T07:04:53.877Z,16.93
2022-10-17T07:05:53.870Z,16.96
2022-10-17T07:06:54.248Z,16.98
2022-10-17T07:07:53.790Z,17.03
2022-10-17T07:08:54.120Z,17.06
2022-10-17T07:09:53.770Z,17.11
2022-10-17T07:10:53.829Z,17.14
2022-10-17T07:11:53.837Z,17.18
2022-10-17T07:12:53.731Z,17.20
2022-10-17T07:13:53.818Z,17.25
2022-10-17T07:14:53.914Z,17.25
2022-10-17T07:15:53.687Z,17.25
2022-10-17T07:16:53.637Z,17.26
2022-10-17T07:17:53.787Z,17.29
2022-10-17T07:18:53.627Z,17.32
2022-10-17T07:19:53.623Z,17.41
2022-10-17T07:20:53.621Z,17.48
2022-10-17T07:21:53.847Z,17.53
2022-10-17T07:22:53.733Z,17.55
2022-10-17T07:23:53.579Z,17.57
2022-10-17T07:24:53.684Z,17.57
2022-10-17T07:25:53.577Z,17.62
2022-10-17T07:26:53.550Z,17.64
2022-10-17T07:27:53.929Z,17.66
2022-10-17T07:28:53.610Z,17.66
2022-10-17T07:29:53.589Z,17.67
2022-10-17T07:30:54.456Z,17.67
2022-10-17T07:31:54.010Z,17.67
2022-10-17T07:32:53.508Z,17.67
2022-10-17T07:33:53.772Z,17.69
2022-10-17T07:34:53.969Z,17.70
2022-10-17T07:35:53.509Z,17.73
2022-10-17T07:36:53.724Z,17.76
2022-10-17T07:37:53.750Z,17.81
2022-10-17T07:38:53.678Z,17.85
2022-10-17T07:39:53.450Z,17.91
2022-10-17T07:40:53.403Z,17.97
2022-10-17T07:41:53.440Z,18.03
2022-10-17T07:42:53.986Z,18.09
2022-10-17T07:43:53.603Z,18.13
2022-10-17T07:44:53.615Z,18.18
2022-10-17T07:45:53.342Z,18.21
2022-10-17T07:46:53.529Z,18.21
2022-10-17T07:47:53.655Z,18.28
2022-10-17T07:48:53.462Z,18.36
2022-10-17T07:49:53.288Z,18.37
2022-10-17T07:50:53.394Z,18.40
2022-10-17T07:51:53.289Z,18.39
2022-10-17T07:52:53.274Z,18.40
2022-10-17T07:53:53.585Z,18.40
2022-10-17T07:54:53.303Z,18.39
2022-10-17T07:55:53.417Z,18.37
2022-10-17T07:56:53.572Z,18.34
2022-10-17T07:57:53.219Z,18.33
2022-10-17T07:58:53.657Z,18.31
2022-10-17T07:59:53.611Z,18.33
2022-10-17T08:00:53.533Z,18.33
2022-10-17T08:01:53.397Z,18.34
2022-10-17T08:02:53.661Z,18.34
2022-10-17T08:03:53.202Z,18.40
2022-10-17T08:04:53.373Z,18.47
2022-10-17T08:05:53.169Z,18.52
2022-10-17T08:06:56.486Z,18.57
2022-10-17T08:07:53.172Z,18.59
2022-10-17T08:08:53.421Z,18.68
2022-10-17T08:09:53.203Z,18.74
2022-10-17T08:10:53.305Z,18.82
2022-10-17T08:11:53.276Z,18.90
2022-10-17T08:12:53.326Z,18.97
2022-10-17T08:13:53.068Z,19.02
2022-10-17T08:14:53.195Z,19.13
2022-10-17T08:15:53.163Z,19.18
2022-10-17T08:16:53.178Z,19.23
2022-10-17T08:17:53.024Z,19.25
2022-10-17T08:18:53.054Z,19.31
2022-10-17T08:19:53.465Z,19.33
2022-10-17T08:20:56.725Z,19.35
2022-10-17T08:21:53.011Z,19.38
2022-10-17T08:22:53.287Z,19.40
2022-10-17T08:23:53.144Z,19.46
2022-10-17T08:24:53.250Z,19.53
2022-10-17T08:25:53.101Z,19.54
2022-10-17T08:26:53.176Z,19.58
2022-10-17T08:27:52.969Z,19.68
2022-10-17T08:28:53.114Z,19.72
2022-10-17T08:29:53.045Z,19.78
2022-10-17T08:30:52.906Z,19.80
2022-10-17T08:31:56.274Z,19.83
2022-10-17T08:32:53.260Z,19.86
2022-10-17T08:33:53.047Z,19.84
2022-10-17T08:34:52.860Z,19.83
2022-10-17T08:35:53.029Z,19.84
2022-10-17T08:36:52.857Z,19.86
2022-10-17T08:37:52.952Z,19.91
2022-10-17T08:38:53.511Z,19.94
2022-10-17T08:39:53.436Z,20.02
2022-10-17T08:40:52.838Z,20.05
2022-10-17T08:41:52.823Z,20.08
2022-10-17T08:42:52.964Z,20.12
2022-10-17T08:43:52.881Z,20.15
2022-10-17T08:44:52.827Z,20.18
2022-10-17T08:45:53.298Z,20.20
2022-10-17T08:46:52.828Z,20.15
2022-10-17T08:47:53.149Z,20.13
2022-10-17T08:48:53.140Z,20.16
2022-10-17T08:49:53.239Z,20.12
2022-10-17T08:50:52.743Z,20.08
2022-10-17T08:51:52.976Z,20.00
2022-10-17T08:52:52.709Z,19.98
2022-10-17T08:53:52.859Z,19.94
2022-10-17T08:54:52.852Z,19.94
2022-10-17T08:55:52.666Z,19.94
2022-10-17T08:56:53.129Z,19.91
2022-10-17T08:57:52.684Z,19.94
2022-10-17T08:58:53.313Z,19.97
2022-10-17T08:59:52.662Z,20.00
2022-10-17T09:00:52.787Z,20.05
2022-10-17T09:01:52.581Z,20.10
2022-10-17T09:02:53.082Z,20.18
2022-10-17T09:03:52.699Z,20.25
2022-10-17T09:04:52.588Z,20.33
2022-10-17T09:05:52.628Z,20.42
2022-10-17T09:06:52.530Z,20.43
2022-10-17T09:07:52.506Z,20.49
2022-10-17T09:08:52.587Z,20.50
2022-10-17T09:09:52.572Z,20.53
2022-10-17T09:10:52.888Z,20.58
2022-10-17T09:11:52.760Z,20.68
2022-10-17T09:12:52.468Z,20.79
2022-10-17T09:13:52.472Z,20.89
2022-10-17T09:14:52.619Z,20.98
2022-10-17T09:15:52.654Z,20.98
2022-10-17T09:16:52.636Z,20.90
2022-10-17T09:17:52.428Z,20.90
2022-10-17T09:18:53.016Z,20.95
2022-10-17T09:19:52.431Z,21.01
2022-10-17T09:20:53.056Z,21.17
2022-10-17T09:21:52.530Z,21.36
2022-10-17T09:22:52.577Z,21.51
2022-10-17T09:23:59.473Z,21.63
2022-10-17T09:24:52.576Z,21.78
2022-10-17T09:25:57.316Z,21.91
2022-10-17T09:26:52.339Z,21.95
2022-10-17T09:27:52.537Z,22.02
2022-10-17T09:28:52.349Z,22.12
2022-10-17T09:29:52.560Z,22.12
2022-10-17T09:30:52.554Z,22.06
2022-10-17T09:31:52.489Z,22.09
2022-10-17T09:32:52.390Z,22.01
2022-10-17T09:33:54.616Z,21.98
2022-10-17T09:34:52.224Z,21.92
2022-10-17T09:35:52.530Z,21.85
2022-10-17T09:36:52.235Z,21.83
2022-10-17T09:37:52.237Z,21.76
2022-10-17T09:38:52.308Z,21.67
2022-10-17T09:39:52.241Z,21.60
2022-10-17T09:40:56.200Z,21.56
2022-10-17T09:41:52.193Z,21.39
2022-10-17T09:42:52.558Z,21.34
2022-10-17T09:43:52.594Z,21.23
2022-10-17T09:44:52.169Z,21.14
2022-10-17T09:45:52.234Z,21.01
2022-10-17T09:46:52.650Z,20.89
2022-10-17T09:47:52.219Z,20.77
2022-10-17T09:48:53.444Z,20.68
2022-10-17T09:49:52.218Z,20.62
2022-10-17T09:51:02.577Z,20.58
2022-10-17T09:51:52.136Z,20.54
2022-10-17T09:52:52.171Z,20.49
2022-10-17T09:53:52.339Z,20.46
2022-10-17T09:54:52.114Z,20.46
2022-10-17T09:55:52.394Z,20.47
2022-10-17T09:56:52.046Z,20.43
2022-10-17T09:57:52.251Z,20.47
2022-10-17T09:58:52.496Z,20.42
2022-10-17T09:59:52.135Z,20.42
2022-10-17T10:00:52.060Z,20.43
2022-10-17T10:01:51.997Z,20.42
2022-10-17T10:02:52.262Z,20.39
2022-10-17T10:03:51.960Z,20.30
2022-10-17T10:05:03.656Z,20.25
2022-10-17T10:05:52.003Z,20.23
2022-10-17T10:06:52.030Z,20.18
2022-10-17T10:07:51.996Z,20.15
2022-10-17T10:08:51.985Z,20.15
2022-10-17T10:09:52.058Z,20.13
2022-10-17T10:10:51.985Z,20.13
2022-10-17T10:11:51.918Z,20.13
2022-10-17T10:12:52.539Z,20.12
2022-10-17T10:13:53.198Z,20.09
2022-10-17T10:14:54.700Z,20.08
2022-10-17T10:15:51.933Z,20.02
2022-10-17T10:16:52.048Z,20.00
2022-10-17T10:17:51.880Z,20.00
2022-10-17T10:18:52.047Z,19.95
2022-10-17T10:19:51.813Z,19.93
2022-10-17T10:20:52.041Z,19.91
2022-10-17T10:21:51.809Z,19.87
2022-10-17T10:22:53.484Z,19.86
2022-10-17T10:23:51.806Z,19.83
2022-10-17T10:24:52.246Z,19.83
2022-10-17T10:25:51.929Z,19.78
2022-10-17T10:26:51.819Z,19.75
2022-10-17T10:27:51.919Z,19.72
2022-10-17T10:28:51.830Z,19.72
2022-10-17T10:29:52.327Z,19.75
2022-10-17T10:30:52.293Z,19.76
2022-10-17T10:31:51.789Z,19.78
2022-10-17T10:32:52.492Z,19.83
2022-10-17T10:33:55.600Z,19.86
2022-10-17T10:34:51.646Z,19.87
2022-10-17T10:35:51.813Z,19.93
2022-10-17T10:36:52.371Z,19.95
2022-10-17T10:37:51.687Z,20.02
2022-10-17T10:38:51.764Z,20.06
2022-10-17T10:39:51.837Z,20.12
2022-10-17T10:40:52.527Z,20.15
2022-10-17T10:41:51.804Z,20.21
2022-10-17T10:42:51.807Z,20.24
2022-10-17T10:43:51.677Z,20.25
2022-10-17T10:44:51.916Z,20.28
2022-10-17T10:45:51.778Z,20.31
2022-10-17T10:46:51.581Z,20.33
2022-10-17T10:47:51.614Z,20.35
2022-10-17T10:48:52.373Z,20.41
2022-10-17T10:49:52.163Z,20.42
2022-10-17T10:50:51.790Z,20.47
2022-10-17T10:51:51.927Z,20.49
2022-10-17T10:52:51.961Z,20.46
2022-10-17T10:53:51.495Z,20.43
2022-10-17T10:54:51.682Z,20.41
2022-10-17T10:55:52.096Z,20.38
2022-10-17T10:56:53.455Z,20.35
2022-10-17T10:57:51.857Z,20.34
2022-10-17T10:58:52.010Z,20.33
2022-10-17T10:59:51.543Z,20.31
2022-10-17T11:00:51.515Z,20.27
2022-10-17T11:01:51.617Z,20.24
2022-10-17T11:02:51.430Z,20.18
2022-10-17T11:03:51.593Z,20.12
2022-10-17T11:04:51.373Z,20.08
2022-10-17T11:05:51.465Z,20.05
2022-10-17T11:06:51.375Z,20.00
2022-10-17T11:07:51.493Z,19.95
2022-10-17T11:08:51.422Z,19.98
2022-10-17T11:09:51.644Z,19.97
2022-10-17T11:10:51.602Z,19.95
2022-10-17T11:11:51.448Z,19.94
2022-10-17T11:12:51.963Z,19.94
2022-10-17T11:13:54.008Z,19.94
2022-10-17T11:14:51.525Z,19.90
2022-10-17T11:15:51.871Z,19.86
2022-10-17T11:16:51.458Z,19.84
2022-10-17T11:17:51.223Z,19.83
2022-10-17T11:18:51.266Z,19.78
2022-10-17T11:19:51.477Z,19.76
2022-10-17T11:20:51.724Z,19.76
2022-10-17T11:21:51.492Z,19.75
2022-10-17T11:22:51.250Z,19.73
2022-10-17T11:23:51.194Z,19.72
2022-10-17T11:24:51.308Z,19.70
2022-10-17T11:25:51.241Z,19.72
2022-10-17T11:26:51.490Z,19.72
2022-10-17T11:27:51.351Z,19.72
2022-10-17T11:28:51.252Z,19.65
2022-10-17T11:29:51.314Z,19.63
2022-10-17T11:30:51.223Z,19.65
2022-10-17T11:31:51.122Z,19.66
2022-10-17T11:32:51.495Z,19.66
2022-10-17T11:33:51.111Z,19.66
2022-10-17T11:34:51.290Z,19.66
2022-10-17T11:35:51.043Z,19.66
2022-10-17T11:36:51.076Z,19.66
2022-10-17T11:37:51.398Z,19.68
2022-10-17T11:38:51.112Z,19.66
2022-10-17T11:39:51.203Z,19.66
2022-10-17T11:40:50.995Z,19.66
2022-10-17T11:41:52.580Z,19.68
2022-10-17T11:42:51.124Z,19.68
2022-10-17T11:43:51.054Z,19.68
2022-10-17T11:44:51.234Z,19.69
2022-10-17T11:45:51.167Z,19.69
2022-10-17T11:46:51.402Z,19.68
2022-10-17T11:47:51.369Z,19.69
2022-10-17T11:48:51.071Z,19.70
2022-10-17T11:49:51.682Z,19.72
2022-10-17T11:52:00.357Z,19.76
2022-10-17T11:52:56.595Z,19.78
2022-10-17T11:53:51.135Z,19.80
2022-10-17T11:54:50.830Z,19.83
2022-10-17T11:55:51.045Z,19.83
2022-10-17T11:56:50.950Z,19.87
2022-10-17T11:57:51.205Z,19.93
2022-10-17T11:58:50.880Z,19.91
2022-10-17T11:59:51.061Z,19.94
2022-10-17T12:00:50.797Z,19.97
2022-10-17T12:01:51.351Z,19.97
2022-10-17T12:02:51.077Z,20.00
2022-10-17T12:03:50.781Z,20.00
2022-10-17T12:04:51.014Z,20.05
2022-10-17T12:05:50.826Z,20.03
2022-10-17T12:06:51.304Z,20.03
2022-10-17T12:07:50.879Z,20.02
2022-10-17T12:08:50.783Z,20.02
2022-10-17T12:09:50.800Z,20.00
2022-10-17T12:10:50.779Z,19.98
2022-10-17T12:11:50.893Z,19.97
2022-10-17T12:12:50.726Z,19.95
2022-10-17T12:13:50.820Z,19.94
2022-10-17T12:14:50.828Z,19.95
2022-10-17T12:15:50.742Z,19.91
2022-10-17T12:16:50.689Z,19.91
2022-10-17T12:17:51.009Z,19.88
2022-10-17T12:18:50.779Z,19.88
2022-10-17T12:19:50.873Z,19.86
2022-10-17T12:20:50.992Z,19.86
2022-10-17T12:21:50.852Z,19.83
2022-10-17T12:22:50.715Z,19.80
2022-10-17T12:23:50.581Z,19.78
2022-10-17T12:24:50.584Z,19.75
2022-10-17T12:25:50.574Z,19.72
2022-10-17T12:26:53.111Z,19.70
2022-10-17T12:27:50.566Z,19.70
2022-10-17T12:28:50.944Z,19.69
2022-10-17T12:29:50.623Z,19.69
2022-10-17T12:30:50.509Z,19.68
2022-10-17T12:31:50.524Z,19.69
2022-10-17T12:33:04.158Z,19.68
2022-10-17T12:33:50.464Z,19.66
2022-10-17T12:34:50.479Z,19.66
2022-10-17T12:35:50.415Z,19.65
2022-10-17T12:36:50.459Z,19.63
2022-10-17T12:37:50.413Z,19.60
2022-10-17T12:38:50.547Z,19.55
2022-10-17T12:39:50.396Z,19.51
2022-10-17T12:40:50.548Z,19.48
2022-10-17T12:41:50.356Z,19.42
2022-10-17T12:42:50.376Z,19.42
2022-10-17T12:44:51.237Z,19.35
2022-10-17T12:45:50.344Z,19.32
2022-10-17T12:46:50.330Z,19.29
2022-10-17T12:47:50.455Z,19.25
2022-10-17T12:48:50.496Z,19.23
2022-10-17T12:49:54.420Z,19.20
2022-10-17T12:50:51.252Z,19.20
2022-10-17T12:51:50.457Z,19.18
2022-10-17T12:53:50.294Z,19.15
2022-10-17T12:55:00.299Z,19.15
2022-10-17T12:55:50.334Z,19.14
2022-10-17T12:56:50.265Z,19.13
2022-10-17T12:57:50.279Z,19.13
2022-10-17T12:58:50.349Z,19.11